createdAt,value
2022-12-06T00:01:11.742Z,99045.28
2022-12-06T00:03:40.157Z,99051.28
2022-12-06T00:06:13.888Z,99043.50
2022-12-06T00:08:41.675Z,99044.34
2022-12-06T00:11:11.740Z,99034.84
2022-12-06T00:13:39.469Z,99035.72
2022-12-06T00:16:13.093Z,99043.50
2022-12-06T00:18:41.257Z,99036.53
2022-12-06T00:21:18.975Z,99033.94
2022-12-06T00:23:48.454Z,99035.66
2022-12-06T00:26:15.868Z,99026.16
2022-12-06T00:28:43.079Z,99025.31
2022-12-06T00:31:15.200Z,99031.34
2022-12-06T00:33:42.420Z,99025.31
2022-12-06T00:36:16.053Z,99022.72
2022-12-06T00:38:43.431Z,99022.72
2022-12-06T00:41:19.271Z,99018.38
2022-12-06T00:43:46.751Z,99019.25
2022-12-06T00:46:17.501Z,99011.47
2022-12-06T00:48:45.370Z,99008.03
2022-12-06T00:51:13.996Z,99009.75
2022-12-06T00:53:41.273Z,99006.31
2022-12-06T00:56:08.933Z,99010.63
2022-12-06T00:58:35.709Z,99007.22
2022-12-06T01:01:16.797Z,99005.47
2022-12-06T01:03:45.318Z,99005.44
2022-12-06T01:06:15.231Z,99008.91
2022-12-06T01:08:43.267Z,99019.28
2022-12-06T01:11:11.767Z,99014.94
2022-12-06T01:13:38.640Z,99007.16
2022-12-06T01:16:08.268Z,99004.56
2022-12-06T01:18:35.705Z,98994.16
2022-12-06T01:21:05.232Z,98993.28
2022-12-06T01:23:32.095Z,98989.78
2022-12-06T01:25:59.171Z,98987.19
2022-12-06T01:28:26.084Z,98979.38
2022-12-06T01:30:53.294Z,98975.03
2022-12-06T01:33:20.200Z,98974.19
2022-12-06T01:35:47.292Z,98960.31
2022-12-06T01:38:14.405Z,98962.03
2022-12-06T01:40:45.492Z,98960.31
2022-12-06T01:43:34.179Z,98952.56
2022-12-06T01:46:12.988Z,98948.25
2022-12-06T01:48:41.625Z,98944.78
2022-12-06T01:51:12.181Z,98945.69
2022-12-06T01:53:40.688Z,98954.34
2022-12-06T01:56:08.426Z,98956.94
2022-12-06T01:58:40.655Z,98948.31
2022-12-06T02:01:09.568Z,98942.22
2022-12-06T02:03:37.019Z,98945.69
2022-12-06T02:06:07.308Z,98937.88
2022-12-06T02:08:35.734Z,98937.88
2022-12-06T02:11:04.313Z,98934.44
2022-12-06T02:13:33.787Z,98931.00
2022-12-06T02:16:06.617Z,98925.75
2022-12-06T02:18:39.365Z,98931.81
2022-12-06T02:21:36.950Z,98930.91
2022-12-06T02:24:41.147Z,98924.03
2022-12-06T02:27:19.979Z,98919.69
2022-12-06T02:30:12.013Z,98923.16
2022-12-06T02:32:48.167Z,98908.44
2022-12-06T02:35:46.937Z,98906.66
2022-12-06T02:38:20.553Z,98902.34
2022-12-06T02:41:20.105Z,98896.28
2022-12-06T02:43:53.820Z,98895.38
2022-12-06T02:46:22.782Z,98895.38
2022-12-06T02:48:52.814Z,98897.97
2022-12-06T02:51:20.641Z,98897.97
2022-12-06T02:53:52.002Z,98895.34
2022-12-06T02:56:19.979Z,98891.03
2022-12-06T02:58:47.101Z,98893.63
2022-12-06T03:01:34.154Z,98887.56
2022-12-06T03:04:34.583Z,98883.22
2022-12-06T03:07:12.723Z,98878.88
2022-12-06T03:09:54.653Z,98878.00
2022-12-06T03:12:21.379Z,98878.03
2022-12-06T03:14:58.586Z,98876.28
2022-12-06T03:17:40.985Z,98874.56
2022-12-06T03:20:24.116Z,98875.41
2022-12-06T03:22:58.896Z,98871.06
2022-12-06T03:25:27.576Z,98867.63
2022-12-06T03:27:56.484Z,98865.03
2022-12-06T03:30:24.155Z,98870.19
2022-12-06T03:32:51.545Z,98863.28
2022-12-06T03:35:24.578Z,98871.03
2022-12-06T03:37:57.616Z,98873.63
2022-12-06T03:40:29.071Z,98871.00
2022-12-06T03:42:56.732Z,98877.88
2022-12-06T03:45:30.639Z,98876.16
2022-12-06T03:48:08.329Z,98876.09
2022-12-06T03:50:41.186Z,98871.78
2022-12-06T03:53:08.084Z,98866.59
2022-12-06T03:55:35.248Z,98866.56
2022-12-06T03:58:02.237Z,98857.06
2022-12-06T04:00:29.650Z,98854.47
2022-12-06T04:02:56.506Z,98849.25
2022-12-06T04:05:23.625Z,98850.97
2022-12-06T04:07:50.540Z,98852.72
2022-12-06T04:10:17.754Z,98837.13
2022-12-06T04:13:02.270Z,98837.13
2022-12-06T04:15:34.891Z,98837.97
2022-12-06T04:18:13.618Z,98837.94
2022-12-06T04:21:05.160Z,98838.81
2022-12-06T04:23:41.049Z,98838.78
2022-12-06T04:26:11.374Z,98843.97
2022-12-06T04:28:56.916Z,98836.19
2022-12-06T04:31:42.821Z,98843.13
2022-12-06T04:34:28.485Z,98837.03
2022-12-06T04:37:13.990Z,98831.81
2022-12-06T04:39:40.888Z,98829.22
2022-12-06T04:42:26.952Z,98831.84
2022-12-06T04:44:53.777Z,98820.59
2022-12-06T04:47:21.001Z,98825.78
2022-12-06T04:49:48.203Z,98810.19
2022-12-06T04:52:15.509Z,98811.94
2022-12-06T04:54:42.702Z,98802.41
2022-12-06T04:57:12.977Z,98810.19
2022-12-06T04:59:41.738Z,98805.84
2022-12-06T05:02:11.128Z,98807.59
2022-12-06T05:04:37.937Z,98801.50
2022-12-06T05:07:05.057Z,98804.94
2022-12-06T05:09:31.974Z,98813.59
2022-12-06T05:11:59.022Z,98813.53
2022-12-06T05:14:26.331Z,98800.53
2022-12-06T05:16:53.484Z,98797.91
2022-12-06T05:19:20.341Z,98803.94
2022-12-06T05:21:47.428Z,98798.72
2022-12-06T05:24:14.446Z,98793.53
2022-12-06T05:26:41.572Z,98792.63
2022-12-06T05:29:08.540Z,98788.34
2022-12-06T05:31:35.639Z,98794.44
2022-12-06T05:34:02.524Z,98788.34
2022-12-06T05:36:29.663Z,98789.19
2022-12-06T05:38:57.523Z,98787.44
2022-12-06T05:41:25.593Z,98786.59
2022-12-06T05:43:55.062Z,98781.41
2022-12-06T05:46:22.262Z,98783.13
2022-12-06T05:48:49.064Z,98780.53
2022-12-06T05:51:16.105Z,98771.88
2022-12-06T05:53:42.889Z,98769.28
2022-12-06T05:56:12.049Z,98768.38
2022-12-06T05:58:39.941Z,98762.34
2022-12-06T06:01:08.690Z,98766.69
2022-12-06T06:03:35.875Z,98761.50
2022-12-06T06:06:03.616Z,98759.75
2022-12-06T06:08:31.003Z,98759.81
2022-12-06T06:11:00.183Z,98756.34
2022-12-06T06:13:27.457Z,98765.84
2022-12-06T06:15:55.011Z,98755.44
2022-12-06T06:18:21.916Z,98759.75
2022-12-06T06:20:51.074Z,98751.97
2022-12-06T06:23:18.335Z,98758.91
2022-12-06T06:25:45.426Z,98756.25
2022-12-06T06:28:12.788Z,98764.06
2022-12-06T06:30:39.920Z,98753.66
2022-12-06T06:33:06.808Z,98749.34
2022-12-06T06:35:34.245Z,98743.25
2022-12-06T06:38:01.156Z,98749.34
2022-12-06T06:40:28.807Z,98746.75
2022-12-06T06:42:56.164Z,98748.47
2022-12-06T06:45:28.607Z,98749.34
2022-12-06T06:47:55.803Z,98742.41
2022-12-06T06:50:22.896Z,98749.34
2022-12-06T06:52:49.899Z,98738.97
2022-12-06T06:55:17.138Z,98741.50
2022-12-06T06:57:44.264Z,98741.50
2022-12-06T07:00:12.562Z,98737.16
2022-12-06T07:02:39.612Z,98735.38
2022-12-06T07:05:07.853Z,98737.97
2022-12-06T07:07:34.747Z,98736.19
2022-12-06T07:10:02.160Z,98742.22
2022-12-06T07:12:29.316Z,98732.59
2022-12-06T07:14:56.725Z,98743.81
2022-12-06T07:17:24.659Z,98729.88
2022-12-06T07:19:51.872Z,98724.59
2022-12-06T07:22:18.768Z,98720.22
2022-12-06T07:24:52.106Z,98723.66
2022-12-06T07:27:19.384Z,98725.34
2022-12-06T07:29:46.448Z,98718.34
2022-12-06T07:32:13.248Z,98717.41
2022-12-06T07:34:40.681Z,98717.34
2022-12-06T07:37:07.593Z,98712.97
2022-12-06T07:39:34.717Z,98708.53
2022-12-06T07:42:19.922Z,98709.38
2022-12-06T07:45:03.144Z,98707.53
2022-12-06T07:47:38.886Z,98714.38
2022-12-06T07:50:10.575Z,98707.38
2022-12-06T07:52:41.538Z,98695.97
2022-12-06T07:55:10.752Z,98704.53
2022-12-06T07:57:43.196Z,98701.84
2022-12-06T08:00:13.246Z,98691.34
2022-12-06T08:02:40.241Z,98697.41
2022-12-06T08:05:08.191Z,98693.84
2022-12-06T08:07:35.120Z,98699.91
2022-12-06T08:10:02.570Z,98688.66
2022-12-06T08:12:32.231Z,98695.66
2022-12-06T08:15:00.085Z,98693.13
2022-12-06T08:17:28.124Z,98687.91
2022-12-06T08:19:55.233Z,98679.25
2022-12-06T08:22:22.093Z,98684.41
2022-12-06T08:24:49.197Z,98674.81
2022-12-06T08:27:16.078Z,98679.94
2022-12-06T08:29:45.427Z,98678.16
2022-12-06T08:32:12.569Z,98676.38
2022-12-06T08:34:39.760Z,98670.22
2022-12-06T08:37:06.542Z,98672.69
2022-12-06T08:39:33.644Z,98657.78
2022-12-06T08:42:02.318Z,98659.38
2022-12-06T08:44:32.231Z,98656.75
2022-12-06T08:47:01.683Z,98653.97
2022-12-06T08:49:30.685Z,98654.69
2022-12-06T08:51:58.455Z,98656.25
2022-12-06T08:54:26.111Z,98657.78
2022-12-06T08:56:53.523Z,98648.91
2022-12-06T08:59:21.070Z,98639.88
2022-12-06T09:01:48.296Z,98639.66
2022-12-06T09:04:16.124Z,98638.59
2022-12-06T09:06:45.249Z,98637.56
2022-12-06T09:09:14.575Z,98636.50
2022-12-06T09:11:42.128Z,98633.63
2022-12-06T09:14:10.692Z,98616.69
2022-12-06T09:16:37.846Z,98618.53
2022-12-06T09:19:05.009Z,98614.53
2022-12-06T09:21:33.089Z,98613.34
2022-12-06T09:24:00.529Z,98614.94
2022-12-06T09:26:28.772Z,98614.03
2022-12-06T09:28:56.861Z,98609.34
2022-12-06T09:31:24.479Z,98595.06
2022-12-06T09:33:52.391Z,98590.66
2022-12-06T09:36:30.378Z,98583.31
2022-12-06T09:39:01.920Z,98574.94
2022-12-06T09:41:34.920Z,98573.13
2022-12-06T09:44:08.072Z,98561.75
2022-12-06T09:46:56.009Z,98561.75
2022-12-06T09:49:25.815Z,98559.22
2022-12-06T09:52:26.375Z,98558.13
2022-12-06T09:55:15.284Z,98559.72
2022-12-06T09:58:18.389Z,98548.47
2022-12-06T10:01:02.581Z,98539.91
2022-12-06T10:03:55.648Z,98545.97
2022-12-06T10:06:30.552Z,98546.94
2022-12-06T10:09:10.644Z,98542.28
2022-12-06T10:12:02.735Z,98549.63
2022-12-06T10:14:38.469Z,98546.72
2022-12-06T10:17:25.181Z,98543.34
2022-12-06T10:20:13.441Z,98539.38
2022-12-06T10:23:05.681Z,98539.19
2022-12-06T10:25:54.434Z,98537.31
2022-12-06T10:28:51.573Z,98530.84
2022-12-06T10:31:27.221Z,98534.34
2022-12-06T10:33:57.661Z,98528.19
2022-12-06T10:36:51.765Z,98519.53
2022-12-06T10:39:25.455Z,98525.53
2022-12-06T10:42:06.860Z,98522.63
2022-12-06T10:44:47.625Z,98519.56
2022-12-06T10:47:26.127Z,98516.63
2022-12-06T10:50:04.340Z,98516.91
2022-12-06T10:53:13.225Z,98513.81
2022-12-06T10:55:56.429Z,98511.69
2022-12-06T10:58:39.087Z,98515.28
2022-12-06T11:01:17.738Z,98506.78
2022-12-06T11:03:56.140Z,98514.59
2022-12-06T11:06:35.533Z,98503.44
2022-12-06T11:09:12.656Z,98501.03
2022-12-06T11:11:40.778Z,98501.88
2022-12-06T11:14:14.349Z,98494.19
2022-12-06T11:16:50.454Z,98489.78
2022-12-06T11:19:35.615Z,98490.75
2022-12-06T11:22:20.925Z,98488.25
2022-12-06T11:25:03.148Z,98493.56
2022-12-06T11:27:35.890Z,98486.66
2022-12-06T11:30:19.798Z,98497.19
2022-12-06T11:32:50.750Z,98483.34
2022-12-06T11:35:22.199Z,98478.31
2022-12-06T11:37:54.934Z,98468.75
2022-12-06T11:40:30.067Z,98465.38
2022-12-06T11:43:00.416Z,98467.28
2022-12-06T11:45:33.181Z,98455.28
2022-12-06T11:48:05.804Z,98461.47
2022-12-06T11:50:34.459Z,98458.94
2022-12-06T11:53:23.365Z,98452.84
2022-12-06T11:55:54.036Z,98450.16
2022-12-06T11:59:07.049Z,98445.75
2022-12-06T12:01:43.004Z,98448.22
2022-12-06T12:04:35.646Z,98442.16
2022-12-06T12:07:08.577Z,98445.63
2022-12-06T12:09:47.749Z,98433.41
2022-12-06T12:12:22.349Z,98437.72
2022-12-06T12:14:58.583Z,98432.50
2022-12-06T12:17:30.641Z,98437.78
2022-12-06T12:20:02.511Z,98424.78
2022-12-06T12:22:39.245Z,98433.53
2022-12-06T12:25:22.609Z,98421.56
2022-12-06T12:27:52.261Z,98416.38
2022-12-06T12:30:25.575Z,98420.88
2022-12-06T12:33:07.612Z,98415.78
2022-12-06T12:35:37.482Z,98408.00
2022-12-06T12:38:06.932Z,98406.34
2022-12-06T12:40:35.917Z,98396.00
2022-12-06T12:43:15.020Z,98398.66
2022-12-06T12:46:15.752Z,98396.13
2022-12-06T12:48:45.478Z,98397.03
2022-12-06T12:51:41.487Z,98390.22
2022-12-06T12:54:21.950Z,98389.34
2022-12-06T12:56:49.909Z,98384.19
2022-12-06T12:59:19.678Z,98383.34
2022-12-06T13:01:49.709Z,98374.69
2022-12-06T13:04:43.233Z,98380.03
2022-12-06T13:07:10.408Z,98374.84
2022-12-06T13:09:55.681Z,98372.34
2022-12-06T13:12:46.057Z,98368.06
2022-12-06T13:15:17.264Z,98367.22
2022-12-06T13:17:55.064Z,98359.47
2022-12-06T13:20:31.817Z,98362.19
2022-12-06T13:23:19.512Z,98360.69
2022-12-06T13:26:27.597Z,98357.34
2022-12-06T13:28:59.457Z,98355.81
2022-12-06T13:31:33.481Z,98359.41
2022-12-06T13:34:06.121Z,98348.34
2022-12-06T13:36:34.797Z,98357.13
2022-12-06T13:39:33.329Z,98357.31
2022-12-06T13:42:20.346Z,98353.06
2022-12-06T13:44:50.401Z,98352.31
2022-12-06T13:47:29.507Z,98347.16
2022-12-06T13:50:16.869Z,98353.25
2022-12-06T13:52:43.649Z,98355.88
2022-12-06T13:55:26.175Z,98355.94
2022-12-06T13:57:55.919Z,98357.66
2022-12-06T14:00:29.034Z,98360.34
2022-12-06T14:03:03.027Z,98360.41
2022-12-06T14:08:32.701Z,98349.28
2022-12-06T14:11:05.746Z,98352.75
2022-12-06T14:13:32.956Z,98350.22
2022-12-06T14:16:00.962Z,98360.63
2022-12-06T14:18:28.810Z,98345.03
2022-12-06T14:20:57.232Z,98356.34
2022-12-06T14:23:41.798Z,98352.91
2022-12-06T14:26:25.090Z,98348.63
2022-12-06T14:28:54.477Z,98350.41
2022-12-06T14:31:26.656Z,98348.66
2022-12-06T14:33:55.548Z,98342.59
2022-12-06T14:36:28.035Z,98349.66
2022-12-06T14:39:02.032Z,98352.22
2022-12-06T14:41:51.470Z,98354.88
2022-12-06T14:44:21.138Z,98350.44
2022-12-06T14:46:49.688Z,98359.97
2022-12-06T14:49:39.132Z,98354.78
2022-12-06T14:52:21.281Z,98361.66
2022-12-06T14:54:48.489Z,98353.00
2022-12-06T14:57:31.329Z,98346.88
2022-12-06T15:00:17.204Z,98351.16
2022-12-06T15:03:07.950Z,98321.63
2022-12-06T15:05:39.175Z,98327.63
2022-12-06T15:08:24.745Z,98321.56
2022-12-06T15:10:57.037Z,98323.38
2022-12-06T15:13:24.635Z,98317.38
2022-12-06T15:16:03.430Z,98309.63
2022-12-06T15:18:35.237Z,98314.88
2022-12-06T15:21:02.049Z,98314.97
2022-12-06T15:23:36.275Z,98314.16
2022-12-06T15:26:05.688Z,98308.09
2022-12-06T15:28:35.916Z,98315.03
2022-12-06T15:31:04.931Z,98317.59
2022-12-06T15:33:32.095Z,98315.00
2022-12-06T15:35:59.219Z,98321.06
2022-12-06T15:38:27.088Z,98319.31
2022-12-06T15:40:55.801Z,98311.50
2022-12-06T15:43:29.821Z,98302.91
2022-12-06T15:46:00.805Z,98305.50
2022-12-06T15:48:30.117Z,98319.41
2022-12-06T15:50:59.873Z,98323.72
2022-12-06T15:53:29.325Z,98319.41
2022-12-06T15:55:56.213Z,98316.06
2022-12-06T15:58:23.423Z,98309.97
2022-12-06T16:00:50.553Z,98309.97
2022-12-06T16:03:18.253Z,98307.28
2022-12-06T16:05:45.068Z,98299.47
2022-12-06T16:08:12.313Z,98309.00
2022-12-06T16:11:10.238Z,98304.59
2022-12-06T16:13:26.375Z,98308.84
2022-12-06T16:15:53.306Z,98309.66
2022-12-06T16:18:20.668Z,98310.47
2022-12-06T16:20:47.864Z,98321.66
2022-12-06T16:24:10.867Z,98314.75
2022-12-06T16:26:23.568Z,98314.84
2022-12-06T16:28:50.777Z,98305.31
2022-12-06T16:31:17.645Z,98308.75
2022-12-06T16:33:44.819Z,98308.81
2022-12-06T16:36:16.694Z,98308.81
2022-12-06T16:38:43.936Z,98303.59
2022-12-06T16:41:19.841Z,98301.00
2022-12-06T16:43:47.046Z,98297.53
2022-12-06T16:46:36.723Z,98289.78
2022-12-06T16:49:45.674Z,98295.84
2022-12-06T16:52:01.965Z,98293.22
2022-12-06T16:54:29.068Z,98294.06
2022-12-06T16:56:55.906Z,98290.56
2022-12-06T16:59:23.098Z,98293.13
2022-12-06T17:01:55.025Z,98287.06
2022-12-06T17:04:22.883Z,98293.97
2022-12-06T17:06:50.007Z,98293.03
2022-12-06T17:09:17.170Z,98292.97
2022-12-06T17:12:02.687Z,98279.00
2022-12-06T17:14:30.386Z,98289.38
2022-12-06T17:16:59.245Z,98281.50
2022-12-06T17:19:28.398Z,98282.34
2022-12-06T17:21:55.928Z,98280.56
2022-12-06T17:24:25.803Z,98281.34
2022-12-06T17:26:54.242Z,98280.44
2022-12-06T17:29:23.732Z,98282.13
2022-12-06T17:31:52.129Z,98284.63
2022-12-06T17:34:20.159Z,98281.16
2022-12-06T17:36:48.898Z,98282.03
2022-12-06T17:39:19.203Z,98278.56
2022-12-06T17:42:07.354Z,98273.34
2022-12-06T17:44:36.348Z,98267.34
2022-12-06T17:47:03.371Z,98270.00
2022-12-06T17:49:35.667Z,98259.69
2022-12-06T17:52:02.415Z,98266.72
2022-12-06T17:54:29.478Z,98258.00
2022-12-06T17:56:56.425Z,98254.56
2022-12-06T17:59:26.764Z,98258.81
2022-12-06T18:04:53.943Z,98256.31
2022-12-06T18:07:21.215Z,98258.06
2022-12-06T18:09:52.514Z,98250.25
2022-12-06T18:12:19.415Z,98252.00
2022-12-06T18:14:46.628Z,98249.41
2022-12-06T18:17:13.881Z,98247.69
2022-12-06T18:19:41.180Z,98249.47
2022-12-06T18:22:08.425Z,98243.44
2022-12-06T18:24:36.435Z,98243.44
2022-12-06T18:27:05.032Z,98238.22
2022-12-06T18:29:32.817Z,98233.94
2022-12-06T18:31:59.717Z,98232.19
2022-12-06T18:34:27.999Z,98235.72
2022-12-06T18:36:54.909Z,98228.75
2022-12-06T18:39:25.075Z,98228.72
2022-12-06T18:41:55.414Z,98235.59
2022-12-06T18:44:23.230Z,98235.53
2022-12-06T18:46:50.246Z,98228.66
2022-12-06T18:49:17.505Z,98229.56
2022-12-06T18:51:44.506Z,98233.84
2022-12-06T18:54:14.020Z,98227.81
2022-12-06T18:56:41.900Z,98223.47
2022-12-06T18:59:11.901Z,98222.56
2022-12-06T19:01:40.438Z,98221.66
2022-12-06T19:04:09.409Z,98224.25
2022-12-06T19:06:37.947Z,98225.91
2022-12-06T19:09:07.840Z,98225.00
2022-12-06T19:11:39.421Z,98223.19
2022-12-06T19:14:10.681Z,98227.47
2022-12-06T19:16:37.976Z,98224.78
2022-12-06T19:19:12.819Z,98222.16
2022-12-06T19:21:44.085Z,98213.50
2022-12-06T19:24:13.133Z,98223.00
2022-12-06T19:26:41.100Z,98226.50
2022-12-06T19:29:08.672Z,98215.22
2022-12-06T19:31:35.786Z,98215.22
2022-12-06T19:34:02.967Z,98218.63
2022-12-06T19:36:31.501Z,98220.31
2022-12-06T19:39:04.578Z,98217.69
2022-12-06T19:41:32.031Z,98217.75
2022-12-06T19:44:17.783Z,98217.69
2022-12-06T19:46:46.498Z,98217.66
2022-12-06T19:49:21.460Z,98221.19
2022-12-06T19:51:52.060Z,98224.59
2022-12-06T19:54:26.857Z,98223.69
2022-12-06T19:56:59.438Z,98212.38
2022-12-06T19:59:30.473Z,98219.28
2022-12-06T20:02:00.262Z,98220.28
2022-12-06T20:04:30.819Z,98218.53
2022-12-06T20:06:59.379Z,98219.41
2022-12-06T20:09:29.323Z,98218.59
2022-12-06T20:12:02.735Z,98212.66
2022-12-06T20:14:41.582Z,98210.88
2022-12-06T20:17:12.526Z,98214.25
2022-12-06T20:19:43.140Z,98215.09
2022-12-06T20:22:10.702Z,98213.31
2022-12-06T20:24:37.935Z,98220.25
2022-12-06T20:27:05.040Z,98222.00
2022-12-06T20:29:32.764Z,98220.16
2022-12-06T20:32:00.824Z,98221.91
2022-12-06T20:34:32.899Z,98218.47
2022-12-06T20:37:00.866Z,98219.31
2022-12-06T20:39:28.638Z,98218.47
2022-12-06T20:41:55.876Z,98213.28
2022-12-06T20:44:23.003Z,98216.75
2022-12-06T20:46:50.291Z,98215.94
2022-12-06T20:49:17.678Z,98220.31
2022-12-06T20:51:49.550Z,98229.91
2022-12-06T20:54:20.047Z,98229.84
2022-12-06T20:56:47.271Z,98235.06
2022-12-06T20:59:14.475Z,98224.63
2022-12-06T21:01:42.129Z,98225.56
2022-12-06T21:04:13.123Z,98223.78
2022-12-06T21:06:40.765Z,98223.72
2022-12-06T21:09:08.039Z,98221.94
2022-12-06T21:11:34.962Z,98227.16
2022-12-06T21:14:03.394Z,98224.53
2022-12-06T21:16:31.933Z,98237.63
2022-12-06T21:19:23.979Z,98246.28
2022-12-06T21:21:54.067Z,98239.31
2022-12-06T21:24:22.377Z,98249.69
2022-12-06T21:26:49.873Z,98248.75
2022-12-06T21:29:20.092Z,98245.22
2022-12-06T21:31:47.928Z,98248.69
2022-12-06T21:34:15.616Z,98248.50
2022-12-06T21:36:43.156Z,98243.69
2022-12-06T21:39:12.497Z,98250.31
2022-12-06T21:41:39.608Z,98250.09
2022-12-06T21:44:07.594Z,98240.44
2022-12-06T21:46:34.661Z,98243.06
2022-12-06T21:49:02.130Z,98251.69
2022-12-06T21:51:31.443Z,98242.19
2022-12-06T21:53:59.045Z,98239.63
2022-12-06T21:56:28.524Z,98243.16
2022-12-06T21:58:55.852Z,98242.38
2022-12-06T22:01:24.888Z,98239.81
2022-12-06T22:03:53.726Z,98237.25
2022-12-06T22:06:21.267Z,98235.59
2022-12-06T22:08:49.482Z,98238.25
2022-12-06T22:11:19.354Z,98242.63
2022-12-06T22:13:48.158Z,98247.81
2022-12-06T22:16:16.216Z,98243.47
2022-12-06T22:18:45.975Z,98246.97
2022-12-06T22:21:21.191Z,98241.81
2022-12-06T22:23:48.705Z,98237.53
2022-12-06T22:26:18.617Z,98241.09
2022-12-06T22:28:46.345Z,98244.63
2022-12-06T22:31:16.378Z,98238.63
2022-12-06T22:33:44.224Z,98246.44
2022-12-06T22:36:12.887Z,98245.63
2022-12-06T22:38:40.469Z,98248.28
2022-12-06T22:41:08.252Z,98246.66
2022-12-06T22:43:35.814Z,98245.00
2022-12-06T22:46:04.685Z,98254.69
2022-12-06T22:48:31.851Z,98247.91
2022-12-06T22:51:20.087Z,98250.63
2022-12-06T22:53:52.146Z,98248.06
2022-12-06T22:56:19.169Z,98246.47
2022-12-06T22:58:46.412Z,98245.66
2022-12-06T23:01:16.709Z,98244.84
2022-12-06T23:03:46.142Z,98250.09
2022-12-06T23:06:14.349Z,98243.22
2022-12-06T23:08:42.257Z,98245.91
2022-12-06T23:11:12.283Z,98248.56
2022-12-06T23:13:39.541Z,98242.56
2022-12-06T23:16:09.320Z,98243.44
2022-12-06T23:18:36.624Z,98241.75
2022-12-06T23:21:03.493Z,98241.78
2022-12-06T23:23:30.928Z,98242.72
2022-12-06T23:26:06.283Z,98241.94
2022-12-06T23:28:34.408Z,98233.31
2022-12-06T23:31:09.850Z,98236.84
2022-12-06T23:33:37.062Z,98245.53
2022-12-06T23:36:07.449Z,98237.72
2022-12-06T23:38:35.748Z,98237.78
2022-12-06T23:41:07.960Z,98228.25
2022-12-06T23:43:36.598Z,98236.03
2022-12-06T23:46:07.669Z,98230.00
2022-12-06T23:48:36.166Z,98236.88
2022-12-06T23:51:12.309Z,98229.06
2022-12-06T23:53:40.307Z,98235.13
2022-12-06T23:56:15.941Z,98234.19
2022-12-06T23:58:44.454Z,98226.38
